createdAt,value
2019-03-25T00:02:28.119Z,83.20
2019-03-25T00:04:56.550Z,84.90
2019-03-25T00:07:24.933Z,85.20
2019-03-25T00:09:53.452Z,85.50
2019-03-25T00:12:21.864Z,85.10
2019-03-25T00:14:50.260Z,85.00
2019-03-25T00:17:18.700Z,84.90
2019-03-25T00:19:47.090Z,84.70
2019-03-25T00:22:15.502Z,85.10
2019-03-25T00:24:44.038Z,85.00
2019-03-25T00:27:12.448Z,85.00
2019-03-25T00:29:40.846Z,85.20
2019-03-25T00:32:10.311Z,85.20
2019-03-25T00:34:38.739Z,85.20
2019-03-25T00:37:07.137Z,86.10
2019-03-25T00:39:35.546Z,87.30
2019-03-25T00:42:04.007Z,88.30
2019-03-25T00:44:32.503Z,89.80
2019-03-25T00:47:03.899Z,90.50
2019-03-25T00:49:32.278Z,90.60
2019-03-25T00:52:00.689Z,91.20
2019-03-25T00:54:29.069Z,91.70
2019-03-25T00:56:57.470Z,91.70
2019-03-25T00:59:26.009Z,91.90
2019-03-25T01:01:54.401Z,92.10
2019-03-25T01:04:22.844Z,91.80
2019-03-25T01:06:51.234Z,91.30
2019-03-25T01:09:19.651Z,91.10
2019-03-25T01:11:49.337Z,91.20
2019-03-25T01:14:18.119Z,91.80
2019-03-25T01:16:46.413Z,91.40
2019-03-25T01:19:14.943Z,91.60
2019-03-25T01:21:43.402Z,92.00
2019-03-25T01:24:11.822Z,92.00
2019-03-25T01:26:40.222Z,92.10
2019-03-25T01:29:08.692Z,92.30
2019-03-25T01:31:37.061Z,92.30
2019-03-25T01:34:15.682Z,92.50
2019-03-25T01:36:44.109Z,92.50
2019-03-25T01:39:12.479Z,92.00
2019-03-25T01:41:41.027Z,92.00
2019-03-25T01:44:09.435Z,91.70
2019-03-25T01:46:37.839Z,91.80
2019-03-25T01:49:06.221Z,91.50
2019-03-25T01:51:34.666Z,91.40
2019-03-25T01:54:03.069Z,91.40
2019-03-25T01:56:31.470Z,91.60
2019-03-25T01:58:59.935Z,91.40
2019-03-25T02:01:28.339Z,91.40
2019-03-25T02:03:56.767Z,91.60
2019-03-25T02:06:25.205Z,91.40
2019-03-25T02:08:53.587Z,91.30
2019-03-25T02:11:22.396Z,91.50
2019-03-25T02:13:51.005Z,91.60
2019-03-25T02:16:19.442Z,91.70
2019-03-25T02:18:47.865Z,91.90
2019-03-25T02:21:16.321Z,92.00
2019-03-25T02:23:44.727Z,92.00
2019-03-25T02:26:13.206Z,92.00
2019-03-25T02:28:41.606Z,92.30
2019-03-25T02:31:10.099Z,92.10
2019-03-25T02:33:38.474Z,92.20
2019-03-25T02:36:06.925Z,92.30
2019-03-25T02:38:36.284Z,92.10
2019-03-25T02:41:04.733Z,92.20
2019-03-25T02:43:33.086Z,92.20
2019-03-25T02:46:01.487Z,92.30
2019-03-25T02:48:29.924Z,92.40
2019-03-25T02:50:58.345Z,92.50
2019-03-25T02:53:26.740Z,92.50
2019-03-25T02:55:55.153Z,92.50
2019-03-25T02:58:23.546Z,92.60
2019-03-25T03:00:52.029Z,92.60
2019-03-25T03:03:20.656Z,92.60
2019-03-25T03:05:50.089Z,92.50
2019-03-25T03:08:18.481Z,92.30
2019-03-25T03:10:46.875Z,92.40
2019-03-25T03:13:15.391Z,92.40
2019-03-25T03:15:43.784Z,92.40
2019-03-25T03:18:12.177Z,92.60
2019-03-25T03:20:40.796Z,92.50
2019-03-25T03:23:09.231Z,92.50
2019-03-25T03:25:37.650Z,92.50
2019-03-25T03:28:06.041Z,92.50
2019-03-25T03:30:34.447Z,92.40
2019-03-25T03:33:02.865Z,92.40
2019-03-25T03:35:31.295Z,92.80
2019-03-25T03:37:59.689Z,92.80
2019-03-25T03:40:28.072Z,93.20
2019-03-25T03:42:56.574Z,92.70
2019-03-25T03:45:25.506Z,92.60
2019-03-25T03:47:57.243Z,92.50
2019-03-25T03:50:26.935Z,92.50
2019-03-25T03:52:55.420Z,92.10
2019-03-25T03:55:24.081Z,92.10
2019-03-25T03:57:52.953Z,92.10
2019-03-25T04:00:29.732Z,92.40
2019-03-25T04:02:58.375Z,92.10
2019-03-25T04:05:26.806Z,92.10
2019-03-25T04:07:55.214Z,92.20
2019-03-25T04:10:23.650Z,92.10
2019-03-25T04:12:52.039Z,92.10
2019-03-25T04:15:28.852Z,92.20
2019-03-25T04:17:57.950Z,92.30
2019-03-25T04:20:26.316Z,92.20
2019-03-25T04:22:54.752Z,92.30
2019-03-25T04:25:23.129Z,92.20
2019-03-25T04:27:51.517Z,92.40
2019-03-25T04:30:20.007Z,92.10
2019-03-25T04:32:48.501Z,92.20
2019-03-25T04:35:16.867Z,92.20
2019-03-25T04:37:45.393Z,91.90
2019-03-25T04:40:13.782Z,92.10
2019-03-25T04:42:42.215Z,92.40
2019-03-25T04:45:10.653Z,92.00
2019-03-25T04:47:39.029Z,92.10
2019-03-25T04:50:07.475Z,92.10
2019-03-25T04:52:35.906Z,92.00
2019-03-25T04:55:05.589Z,92.40
2019-03-25T04:57:33.989Z,91.80
2019-03-25T05:00:02.363Z,91.70
2019-03-25T05:02:30.849Z,91.80
2019-03-25T05:05:03.526Z,92.10
2019-03-25T05:07:32.180Z,92.00
2019-03-25T05:10:00.634Z,92.10
2019-03-25T05:12:29.061Z,92.00
2019-03-25T05:14:57.490Z,92.20
2019-03-25T05:17:25.878Z,92.20
2019-03-25T05:19:54.265Z,92.10
2019-03-25T05:22:22.721Z,92.20
2019-03-25T05:24:51.137Z,92.10
2019-03-25T05:27:19.561Z,92.00
2019-03-25T05:29:47.959Z,92.20
2019-03-25T05:32:17.347Z,92.20
2019-03-25T05:34:45.745Z,92.00
2019-03-25T05:37:14.209Z,92.10
2019-03-25T05:39:42.610Z,92.20
2019-03-25T05:42:11.045Z,92.40
2019-03-25T05:44:39.525Z,92.30
2019-03-25T05:47:08.015Z,92.40
2019-03-25T05:49:36.453Z,92.10
2019-03-25T05:52:04.850Z,92.50
2019-03-25T05:54:33.240Z,92.40
2019-03-25T05:57:02.626Z,92.50
2019-03-25T05:59:31.530Z,92.10
2019-03-25T06:01:59.994Z,92.20
2019-03-25T06:04:28.417Z,91.80
2019-03-25T06:06:56.817Z,92.10
2019-03-25T06:09:25.224Z,91.90
2019-03-25T06:11:54.609Z,92.20
2019-03-25T06:14:23.043Z,92.20
2019-03-25T06:16:51.421Z,92.60
2019-03-25T06:19:19.836Z,92.50
2019-03-25T06:21:48.235Z,92.30
2019-03-25T06:24:16.636Z,91.90
2019-03-25T06:26:45.090Z,91.90
2019-03-25T06:29:13.460Z,92.10
2019-03-25T06:31:41.867Z,91.90
2019-03-25T06:34:10.275Z,91.70
2019-03-25T06:36:38.713Z,91.80
2019-03-25T06:39:07.097Z,91.90
2019-03-25T06:41:35.480Z,91.90
2019-03-25T06:44:03.883Z,91.70
2019-03-25T06:46:32.297Z,91.70
2019-03-25T06:49:00.727Z,91.70
2019-03-25T06:51:29.106Z,91.50
2019-03-25T06:53:57.509Z,91.40
2019-03-25T06:56:25.890Z,91.40
2019-03-25T06:58:54.444Z,91.30
2019-03-25T07:01:22.832Z,90.80
2019-03-25T07:03:51.246Z,90.60
2019-03-25T07:06:19.660Z,90.60
2019-03-25T07:08:48.046Z,90.80
2019-03-25T07:11:16.466Z,91.00
2019-03-25T07:13:44.849Z,90.90
2019-03-25T07:16:13.259Z,90.60
2019-03-25T07:18:41.641Z,91.30
2019-03-25T07:21:10.046Z,92.10
2019-03-25T07:23:38.523Z,91.10
2019-03-25T07:26:07.894Z,91.00
2019-03-25T07:28:38.614Z,90.50
2019-03-25T07:31:06.314Z,90.30
2019-03-25T07:33:34.767Z,90.70
2019-03-25T07:36:03.421Z,90.50
2019-03-25T07:38:31.829Z,91.00
2019-03-25T07:41:00.219Z,91.20
2019-03-25T07:43:28.674Z,91.30
2019-03-25T07:46:00.146Z,91.40
2019-03-25T07:48:28.542Z,90.40
2019-03-25T07:50:56.931Z,90.20
2019-03-25T07:53:25.523Z,90.10
2019-03-25T07:55:53.938Z,88.30
2019-03-25T07:58:22.317Z,86.70
2019-03-25T08:00:50.721Z,86.40
2019-03-25T08:03:19.148Z,86.50
2019-03-25T08:05:47.581Z,85.70
2019-03-25T08:08:16.011Z,85.40
2019-03-25T08:10:44.392Z,84.80
2019-03-25T08:13:12.815Z,82.90
2019-03-25T08:15:41.318Z,81.90
2019-03-25T08:18:09.744Z,80.20
2019-03-25T08:20:38.182Z,82.80
2019-03-25T08:23:06.583Z,83.30
2019-03-25T08:25:35.029Z,83.50
2019-03-25T08:28:03.418Z,84.10
2019-03-25T08:30:31.845Z,84.90
2019-03-25T08:33:00.252Z,84.00
2019-03-25T08:35:28.680Z,83.30
2019-03-25T08:37:57.174Z,84.50
2019-03-25T08:40:25.614Z,83.40
2019-03-25T08:42:53.982Z,81.10
2019-03-25T08:45:22.433Z,81.10
2019-03-25T08:47:50.831Z,81.90
2019-03-25T08:50:19.239Z,82.80
2019-03-25T08:52:47.668Z,82.40
2019-03-25T08:55:16.210Z,81.00
2019-03-25T08:57:44.597Z,81.60
2019-03-25T09:00:13.111Z,80.20
2019-03-25T09:02:41.522Z,76.70
2019-03-25T09:05:09.987Z,79.40
2019-03-25T09:07:38.384Z,79.90
2019-03-25T09:10:09.767Z,79.20
2019-03-25T09:12:38.146Z,78.90
2019-03-25T09:15:09.814Z,79.40
2019-03-25T09:17:38.261Z,73.90
2019-03-25T09:20:07.302Z,73.40
2019-03-25T09:22:35.743Z,73.90
2019-03-25T09:25:06.188Z,74.10
2019-03-25T09:27:34.579Z,73.00
2019-03-25T09:30:03.920Z,71.20
2019-03-25T09:32:32.327Z,73.20
2019-03-25T09:35:00.713Z,73.60
2019-03-25T09:37:29.243Z,75.30
2019-03-25T09:39:57.675Z,71.40
2019-03-25T09:42:26.046Z,70.20
2019-03-25T09:44:54.467Z,70.90
2019-03-25T09:47:22.913Z,71.80
2019-03-25T09:49:51.309Z,70.40
2019-03-25T09:52:20.709Z,70.50
2019-03-25T09:54:49.086Z,68.80
2019-03-25T09:57:19.474Z,65.70
2019-03-25T09:59:47.608Z,65.20
2019-03-25T10:02:16.033Z,64.60
2019-03-25T10:04:44.433Z,62.50
2019-03-25T10:07:16.094Z,59.20
2019-03-25T10:09:44.502Z,60.40
2019-03-25T10:12:12.889Z,61.70
2019-03-25T10:14:41.451Z,63.60
2019-03-25T10:17:09.831Z,67.70
2019-03-25T10:19:38.207Z,70.80
2019-03-25T10:22:06.618Z,71.30
2019-03-25T10:24:35.001Z,72.70
2019-03-25T10:27:03.409Z,69.90
2019-03-25T10:29:31.794Z,65.90
2019-03-25T10:32:01.167Z,63.60
2019-03-25T10:34:29.554Z,63.90
2019-03-25T10:36:57.987Z,59.90
2019-03-25T10:39:26.457Z,62.20
2019-03-25T10:41:54.846Z,64.90
2019-03-25T10:44:30.673Z,65.40
2019-03-25T10:46:59.065Z,65.90
2019-03-25T10:49:27.470Z,64.90
2019-03-25T10:51:55.915Z,62.10
2019-03-25T10:54:24.395Z,62.80
2019-03-25T10:56:53.770Z,63.30
2019-03-25T10:59:22.176Z,62.80
2019-03-25T11:01:50.585Z,60.70
2019-03-25T11:04:19.006Z,59.20
2019-03-25T11:06:47.410Z,60.40
2019-03-25T11:09:15.819Z,62.30
2019-03-25T11:11:44.211Z,61.20
2019-03-25T11:14:12.627Z,59.80
2019-03-25T11:16:41.065Z,62.90
2019-03-25T11:19:09.573Z,62.70
2019-03-25T11:21:37.993Z,67.90
2019-03-25T11:24:06.421Z,77.40
2019-03-25T11:26:34.858Z,82.30
2019-03-25T11:29:08.332Z,82.10
2019-03-25T11:31:33.254Z,82.40
2019-03-25T11:34:01.638Z,79.60
2019-03-25T11:36:30.053Z,80.50
2019-03-25T11:38:58.473Z,73.60
2019-03-25T11:41:26.906Z,75.20
2019-03-25T11:43:55.338Z,78.40
2019-03-25T11:46:23.783Z,80.40
2019-03-25T11:48:52.190Z,76.80
2019-03-25T11:51:20.659Z,75.70
2019-03-25T11:53:49.050Z,75.60
2019-03-25T11:56:17.458Z,75.90
2019-03-25T11:58:46.047Z,74.50
2019-03-25T12:01:15.407Z,73.70
2019-03-25T12:03:43.822Z,72.60
2019-03-25T12:06:12.263Z,73.70
2019-03-25T12:08:40.637Z,72.50
2019-03-25T12:11:09.034Z,69.50
2019-03-25T12:13:37.478Z,66.90
2019-03-25T12:16:05.856Z,64.30
2019-03-25T12:18:34.337Z,67.60
2019-03-25T12:21:02.787Z,69.60
2019-03-25T12:23:31.202Z,66.40
2019-03-25T12:25:59.606Z,66.40
2019-03-25T12:28:28.036Z,66.60
2019-03-25T12:30:56.434Z,65.00
2019-03-25T12:33:24.833Z,64.90
2019-03-25T12:35:53.248Z,63.50
2019-03-25T12:38:21.634Z,62.30
2019-03-25T12:40:50.158Z,62.60
2019-03-25T12:43:18.570Z,73.60
2019-03-25T12:45:47.934Z,76.30
2019-03-25T12:48:16.404Z,74.10
2019-03-25T12:50:45.837Z,71.20
2019-03-25T12:53:14.222Z,70.30
2019-03-25T12:55:43.593Z,71.20
2019-03-25T12:58:12.058Z,68.90
2019-03-25T13:00:42.275Z,68.70
2019-03-25T13:03:10.743Z,69.70
2019-03-25T13:05:39.183Z,71.20
2019-03-25T13:08:07.582Z,71.00
2019-03-25T13:10:36.117Z,71.00
2019-03-25T13:13:04.648Z,71.70
2019-03-25T13:15:40.513Z,75.30
2019-03-25T13:18:08.922Z,77.70
2019-03-25T13:20:42.416Z,79.60
2019-03-25T13:23:10.831Z,80.00
2019-03-25T13:25:39.626Z,77.00
2019-03-25T13:28:08.129Z,73.30
2019-03-25T13:30:36.530Z,71.90
2019-03-25T13:33:04.936Z,72.70
2019-03-25T13:35:33.327Z,73.40
2019-03-25T13:38:01.797Z,75.90
2019-03-25T13:40:30.241Z,77.20
2019-03-25T13:42:58.752Z,75.90
2019-03-25T13:45:27.131Z,75.80
2019-03-25T13:47:55.508Z,75.00
2019-03-25T13:50:23.992Z,72.10
2019-03-25T13:52:52.377Z,69.60
2019-03-25T13:55:20.854Z,66.90
2019-03-25T13:57:49.279Z,67.70
2019-03-25T14:00:20.992Z,68.70
2019-03-25T14:02:49.777Z,70.80
2019-03-25T14:05:18.216Z,72.20
2019-03-25T14:07:46.590Z,75.40
2019-03-25T14:10:15.000Z,75.10
2019-03-25T14:12:43.434Z,75.20
2019-03-25T14:15:11.854Z,73.60
2019-03-25T14:17:40.264Z,73.30
2019-03-25T14:20:08.684Z,72.60
2019-03-25T14:22:37.090Z,70.40
2019-03-25T14:25:06.287Z,69.70
2019-03-25T14:27:34.702Z,70.20
2019-03-25T14:30:13.694Z,71.20
2019-03-25T14:32:33.621Z,71.10
2019-03-25T14:35:02.122Z,71.90
2019-03-25T14:37:30.852Z,73.20
2019-03-25T14:39:59.221Z,73.50
2019-03-25T14:42:27.706Z,74.50
2019-03-25T14:44:56.109Z,71.30
2019-03-25T14:47:24.505Z,70.10
2019-03-25T14:49:53.053Z,71.60
2019-03-25T14:52:21.422Z,72.30
2019-03-25T14:54:49.996Z,71.80
2019-03-25T14:57:18.433Z,71.60
2019-03-25T14:59:46.945Z,71.20
2019-03-25T15:02:16.979Z,71.10
2019-03-25T15:04:45.444Z,72.00
2019-03-25T15:07:13.826Z,73.10
2019-03-25T15:09:42.245Z,73.60
2019-03-25T15:12:10.783Z,72.30
2019-03-25T15:14:39.218Z,73.10
2019-03-25T15:17:07.719Z,72.80
2019-03-25T15:19:36.114Z,73.20
2019-03-25T15:22:04.593Z,72.10
2019-03-25T15:24:33.117Z,71.40
2019-03-25T15:27:03.185Z,73.00
2019-03-25T15:29:31.640Z,72.40
2019-03-25T15:32:00.175Z,71.90
2019-03-25T15:34:28.625Z,71.80
2019-03-25T15:36:57.003Z,71.70
2019-03-25T15:39:25.535Z,71.60
2019-03-25T15:41:53.915Z,71.60
2019-03-25T15:44:22.373Z,71.50
2019-03-25T15:46:55.673Z,71.10
2019-03-25T15:49:20.785Z,71.10
2019-03-25T15:51:49.309Z,71.30
2019-03-25T15:54:17.705Z,71.50
2019-03-25T15:56:46.147Z,72.10
2019-03-25T15:59:14.554Z,73.20
2019-03-25T16:01:42.997Z,72.70
2019-03-25T16:04:11.464Z,72.80
2019-03-25T16:06:39.850Z,73.00
2019-03-25T16:09:08.753Z,72.80
2019-03-25T16:11:37.150Z,72.40
2019-03-25T16:14:05.529Z,72.50
2019-03-25T16:16:33.971Z,73.20
2019-03-25T16:19:02.351Z,72.30
2019-03-25T16:21:30.761Z,73.30
2019-03-25T16:23:59.166Z,72.10
2019-03-25T16:26:27.557Z,72.40
2019-03-25T16:28:55.941Z,72.80
2019-03-25T16:31:24.389Z,73.00
2019-03-25T16:33:59.889Z,72.60
2019-03-25T16:36:28.361Z,72.00
2019-03-25T16:38:56.734Z,72.40
2019-03-25T16:41:25.179Z,72.50
2019-03-25T16:43:53.595Z,72.80
2019-03-25T16:46:21.993Z,73.30
2019-03-25T16:48:50.402Z,73.60
2019-03-25T16:51:18.786Z,73.60
2019-03-25T16:53:47.234Z,74.20
2019-03-25T16:56:15.653Z,74.80
2019-03-25T16:58:44.093Z,75.20
2019-03-25T17:01:12.509Z,75.90
2019-03-25T17:03:40.953Z,75.80
2019-03-25T17:06:09.362Z,76.50
2019-03-25T17:08:37.810Z,76.90
2019-03-25T17:11:06.214Z,77.40
2019-03-25T17:13:34.577Z,77.70
2019-03-25T17:16:02.991Z,78.30
2019-03-25T17:18:31.411Z,78.40
2019-03-25T17:20:59.817Z,78.70
2019-03-25T17:23:30.943Z,78.50
2019-03-25T17:25:59.375Z,79.70
2019-03-25T17:28:27.782Z,79.10
2019-03-25T17:30:57.228Z,79.20
2019-03-25T17:33:25.638Z,79.50
2019-03-25T17:35:54.027Z,79.90
2019-03-25T17:38:22.472Z,80.50
2019-03-25T17:40:50.874Z,80.90
2019-03-25T17:43:19.256Z,80.80
2019-03-25T17:45:48.686Z,81.00
2019-03-25T17:48:17.101Z,81.20
2019-03-25T17:50:45.526Z,81.50
2019-03-25T17:53:13.909Z,82.00
2019-03-25T17:55:42.429Z,82.00
2019-03-25T17:58:10.810Z,82.30
2019-03-25T18:00:58.286Z,82.30
2019-03-25T18:03:26.745Z,82.80
2019-03-25T18:05:55.182Z,83.40
2019-03-25T18:08:23.613Z,83.60
2019-03-25T18:10:51.987Z,83.80
2019-03-25T18:13:22.556Z,83.90
2019-03-25T18:15:50.496Z,84.50
2019-03-25T18:18:18.886Z,85.10
2019-03-25T18:20:47.265Z,85.40
2019-03-25T18:23:15.677Z,85.10
2019-03-25T18:25:45.017Z,85.20
2019-03-25T18:28:13.425Z,85.60
2019-03-25T18:30:41.824Z,85.90
2019-03-25T18:33:10.365Z,85.80
2019-03-25T18:35:38.739Z,85.60
2019-03-25T18:38:07.170Z,85.80
2019-03-25T18:40:35.619Z,85.90
2019-03-25T18:43:03.985Z,86.10
2019-03-25T18:45:32.427Z,86.50
2019-03-25T18:48:00.837Z,86.50
2019-03-25T18:50:29.284Z,87.00
2019-03-25T18:52:57.680Z,86.90
2019-03-25T18:55:26.146Z,86.80
2019-03-25T18:57:54.559Z,86.90
2019-03-25T19:00:33.907Z,87.00
2019-03-25T19:03:02.290Z,87.10
2019-03-25T19:05:31.026Z,86.90
2019-03-25T19:08:01.043Z,86.60
2019-03-25T19:10:29.707Z,86.90
2019-03-25T19:12:58.169Z,86.70
2019-03-25T19:15:27.876Z,86.80
2019-03-25T19:17:56.284Z,86.90
2019-03-25T19:20:24.693Z,87.10
2019-03-25T19:22:53.178Z,87.10
2019-03-25T19:25:21.563Z,87.00
2019-03-25T19:27:49.943Z,87.50
2019-03-25T19:30:19.384Z,87.40
2019-03-25T19:32:47.875Z,87.80
2019-03-25T19:35:16.298Z,87.60
2019-03-25T19:37:44.678Z,87.80
2019-03-25T19:40:13.092Z,88.10
2019-03-25T19:42:41.605Z,88.30
2019-03-25T19:45:10.045Z,88.60
2019-03-25T19:47:38.596Z,89.00
2019-03-25T19:50:07.309Z,88.60
2019-03-25T19:52:35.659Z,88.80
2019-03-25T19:55:04.589Z,88.70
2019-03-25T19:57:33.001Z,88.80
2019-03-25T20:00:01.412Z,89.00
2019-03-25T20:02:29.849Z,89.10
2019-03-25T20:04:58.260Z,89.40
2019-03-25T20:07:26.686Z,89.50
2019-03-25T20:09:55.104Z,89.60
2019-03-25T20:12:23.546Z,90.00
2019-03-25T20:15:03.979Z,90.10
2019-03-25T20:17:30.636Z,90.10
2019-03-25T20:19:59.035Z,90.10
2019-03-25T20:22:27.579Z,90.20
2019-03-25T20:24:56.057Z,90.20
2019-03-25T20:27:24.512Z,90.20
2019-03-25T20:29:52.922Z,90.10
2019-03-25T20:32:31.169Z,90.10
2019-03-25T20:34:51.644Z,90.10
2019-03-25T20:37:20.157Z,90.20
2019-03-25T20:39:48.476Z,90.20
2019-03-25T20:42:17.320Z,90.10
2019-03-25T20:44:45.717Z,90.10
2019-03-25T20:47:14.261Z,90.00
2019-03-25T20:49:42.697Z,90.10
2019-03-25T20:52:11.182Z,90.10
2019-03-25T20:54:39.622Z,90.10
2019-03-25T20:57:08.067Z,90.20
2019-03-25T20:59:36.487Z,90.40
2019-03-25T21:02:04.870Z,90.30
2019-03-25T21:04:33.281Z,90.40
2019-03-25T21:07:01.759Z,90.40
2019-03-25T21:09:30.213Z,90.50
2019-03-25T21:11:58.701Z,90.60
2019-03-25T21:14:28.693Z,90.50
2019-03-25T21:16:57.045Z,90.40
2019-03-25T21:19:25.489Z,90.50
2019-03-25T21:21:54.925Z,90.50
2019-03-25T21:24:23.358Z,90.50
2019-03-25T21:26:51.748Z,90.40
2019-03-25T21:29:20.163Z,90.40
2019-03-25T21:31:48.565Z,90.30
2019-03-25T21:34:16.995Z,90.20
2019-03-25T21:36:45.497Z,90.30
2019-03-25T21:39:13.994Z,90.20
2019-03-25T21:41:43.701Z,90.10
2019-03-25T21:44:12.243Z,90.00
2019-03-25T21:46:40.669Z,90.00
2019-03-25T21:49:09.085Z,89.70
2019-03-25T21:51:37.508Z,89.50
2019-03-25T21:54:06.962Z,89.40
2019-03-25T21:56:35.423Z,89.40
2019-03-25T21:59:03.865Z,89.60
2019-03-25T22:01:32.320Z,89.70
2019-03-25T22:04:01.099Z,89.50
2019-03-25T22:06:29.544Z,89.50
2019-03-25T22:08:57.932Z,89.50
2019-03-25T22:11:26.469Z,89.30
2019-03-25T22:13:54.881Z,89.20
2019-03-25T22:16:23.396Z,89.00
2019-03-25T22:18:51.816Z,88.80
2019-03-25T22:21:20.393Z,88.50
2019-03-25T22:23:48.847Z,88.50
2019-03-25T22:26:17.230Z,88.40
2019-03-25T22:28:45.647Z,88.10
2019-03-25T22:31:14.029Z,88.20
2019-03-25T22:33:42.925Z,88.20
2019-03-25T22:36:11.272Z,88.00
2019-03-25T22:38:39.774Z,88.00
2019-03-25T22:41:08.151Z,87.90
2019-03-25T22:43:36.596Z,87.90
2019-03-25T22:46:04.978Z,87.60
2019-03-25T22:48:33.387Z,87.30
2019-03-25T22:51:01.836Z,87.20
2019-03-25T22:53:30.238Z,87.00
2019-03-25T22:55:58.687Z,86.60
2019-03-25T22:58:27.106Z,86.20
2019-03-25T23:00:55.642Z,86.10
2019-03-25T23:03:24.027Z,86.50
2019-03-25T23:05:53.547Z,86.90
2019-03-25T23:08:22.011Z,84.70
2019-03-25T23:10:54.426Z,84.20
2019-03-25T23:13:22.816Z,84.10
2019-03-25T23:15:51.193Z,84.40
2019-03-25T23:18:19.669Z,83.90
2019-03-25T23:20:48.075Z,82.80
2019-03-25T23:23:16.471Z,82.40
2019-03-25T23:25:45.873Z,81.50
2019-03-25T23:28:14.285Z,81.30
2019-03-25T23:30:42.663Z,82.00
2019-03-25T23:33:11.141Z,82.10
2019-03-25T23:35:39.559Z,82.40
2019-03-25T23:38:07.965Z,82.60
2019-03-25T23:40:36.417Z,82.80
2019-03-25T23:43:04.847Z,82.20
2019-03-25T23:45:33.250Z,82.50
2019-03-25T23:48:01.706Z,82.10
2019-03-25T23:50:30.180Z,81.40
2019-03-25T23:52:58.596Z,81.60
2019-03-25T23:55:27.035Z,81.30
2019-03-25T23:57:55.512Z,82.10
